sensor_id;sensor_type;location;lat;lon;timestamp;P1;durP1;ratioP1;P2;durP2;ratioP2
61200;SDS011;47065;52.898;6.992;2022-09-12T00:01:22;9.15;;;8.30;;
61200;SDS011;47065;52.898;6.992;2022-09-12T00:03:55;10.18;;;8.35;;
61200;SDS011;47065;52.898;6.992;2022-09-12T00:06:24;8.40;;;7.60;;
61200;SDS011;47065;52.898;6.992;2022-09-12T00:08:56;9.07;;;8.15;;
61200;SDS011;47065;52.898;6.992;2022-09-12T00:11:23;8.88;;;8.05;;
61200;SDS011;47065;52.898;6.992;2022-09-12T00:13:50;9.10;;;8.18;;
61200;SDS011;47065;52.898;6.992;2022-09-12T00:16:21;10.55;;;9.65;;
61200;SDS011;47065;52.898;6.992;2022-09-12T00:18:48;10.05;;;9.05;;
61200;SDS011;47065;52.898;6.992;2022-09-12T00:21:14;10.75;;;9.27;;
61200;SDS011;47065;52.898;6.992;2022-09-12T00:23:40;9.40;;;8.38;;
61200;SDS011;47065;52.898;6.992;2022-09-12T00:26:06;8.65;;;7.75;;
61200;SDS011;47065;52.898;6.992;2022-09-12T00:28:33;11.15;;;9.98;;
61200;SDS011;47065;52.898;6.992;2022-09-12T00:31:02;11.77;;;10.07;;
61200;SDS011;47065;52.898;6.992;2022-09-12T00:33:30;11.75;;;9.70;;
61200;SDS011;47065;52.898;6.992;2022-09-12T00:35:56;11.95;;;10.63;;
61200;SDS011;47065;52.898;6.992;2022-09-12T00:38:21;11.70;;;10.50;;
61200;SDS011;47065;52.898;6.992;2022-09-12T00:40:47;13.77;;;11.25;;
61200;SDS011;47065;52.898;6.992;2022-09-12T00:46:05;12.73;;;10.43;;
61200;SDS011;47065;52.898;6.992;2022-09-12T00:48:46;12.82;;;10.73;;
61200;SDS011;47065;52.898;6.992;2022-09-12T00:51:16;13.88;;;12.45;;
61200;SDS011;47065;52.898;6.992;2022-09-12T00:53:43;13.45;;;12.25;;
61200;SDS011;47065;52.898;6.992;2022-09-12T00:56:12;17.05;;;13.98;;
61200;SDS011;47065;52.898;6.992;2022-09-12T00:58:41;13.55;;;11.15;;
61200;SDS011;47065;52.898;6.992;2022-09-12T01:01:12;15.13;;;13.63;;
61200;SDS011;47065;52.898;6.992;2022-09-12T01:03:38;15.63;;;14.02;;
61200;SDS011;47065;52.898;6.992;2022-09-12T01:09:05;18.80;;;15.55;;
61200;SDS011;47065;52.898;6.992;2022-09-12T01:11:35;16.90;;;15.05;;
61200;SDS011;47065;52.898;6.992;2022-09-12T01:14:03;18.45;;;16.17;;
61200;SDS011;47065;52.898;6.992;2022-09-12T01:16:29;18.05;;;15.88;;
61200;SDS011;47065;52.898;6.992;2022-09-12T01:21:28;17.60;;;15.82;;
61200;SDS011;47065;52.898;6.992;2022-09-12T01:31:40;28.52;;;20.67;;
61200;SDS011;47065;52.898;6.992;2022-09-12T01:34:25;19.77;;;17.67;;
61200;SDS011;47065;52.898;6.992;2022-09-12T01:39:47;31.90;;;21.17;;
61200;SDS011;47065;52.898;6.992;2022-09-12T01:42:39;25.98;;;20.13;;
61200;SDS011;47065;52.898;6.992;2022-09-12T01:47:59;26.05;;;20.20;;
61200;SDS011;47065;52.898;6.992;2022-09-12T01:50:34;29.75;;;22.75;;
61200;SDS011;47065;52.898;6.992;2022-09-12T01:53:26;31.60;;;23.88;;
61200;SDS011;47065;52.898;6.992;2022-09-12T01:55:58;30.48;;;24.38;;
61200;SDS011;47065;52.898;6.992;2022-09-12T01:58:41;27.45;;;21.95;;
61200;SDS011;47065;52.898;6.992;2022-09-12T02:01:25;37.15;;;26.20;;
61200;SDS011;47065;52.898;6.992;2022-09-12T02:03:57;31.38;;;25.85;;
61200;SDS011;47065;52.898;6.992;2022-09-12T02:06:41;28.95;;;23.65;;
61200;SDS011;47065;52.898;6.992;2022-09-12T02:09:23;32.58;;;23.80;;
61200;SDS011;47065;52.898;6.992;2022-09-12T02:11:56;27.75;;;22.55;;
61200;SDS011;47065;52.898;6.992;2022-09-12T02:14:25;31.70;;;24.52;;
61200;SDS011;47065;52.898;6.992;2022-09-12T02:16:55;31.92;;;24.08;;
61200;SDS011;47065;52.898;6.992;2022-09-12T02:19:29;32.38;;;22.58;;
61200;SDS011;47065;52.898;6.992;2022-09-12T02:22:02;33.42;;;24.42;;
61200;SDS011;47065;52.898;6.992;2022-09-12T02:24:37;39.65;;;26.33;;
61200;SDS011;47065;52.898;6.992;2022-09-12T02:27:09;41.00;;;26.27;;
61200;SDS011;47065;52.898;6.992;2022-09-12T02:29:42;33.95;;;24.42;;
61200;SDS011;47065;52.898;6.992;2022-09-12T02:35:04;33.90;;;25.60;;
61200;SDS011;47065;52.898;6.992;2022-09-12T02:40:13;42.45;;;27.88;;
61200;SDS011;47065;52.898;6.992;2022-09-12T02:42:39;46.90;;;29.70;;
61200;SDS011;47065;52.898;6.992;2022-09-12T02:45:05;42.80;;;28.83;;
61200;SDS011;47065;52.898;6.992;2022-09-12T02:50:02;46.33;;;31.52;;
61200;SDS011;47065;52.898;6.992;2022-09-12T02:52:29;47.65;;;29.92;;
61200;SDS011;47065;52.898;6.992;2022-09-12T02:54:56;51.63;;;31.13;;
61200;SDS011;47065;52.898;6.992;2022-09-12T02:57:22;42.97;;;29.60;;
61200;SDS011;47065;52.898;6.992;2022-09-12T02:59:49;47.50;;;30.48;;
61200;SDS011;47065;52.898;6.992;2022-09-12T03:05:14;51.60;;;32.22;;
61200;SDS011;47065;52.898;6.992;2022-09-12T03:08:09;46.67;;;30.23;;
61200;SDS011;47065;52.898;6.992;2022-09-12T03:11:13;46.03;;;28.08;;
61200;SDS011;47065;52.898;6.992;2022-09-12T03:13:53;43.53;;;28.52;;
61200;SDS011;47065;52.898;6.992;2022-09-12T03:16:39;42.05;;;28.08;;
61200;SDS011;47065;52.898;6.992;2022-09-12T03:24:52;51.30;;;32.47;;
61200;SDS011;47065;52.898;6.992;2022-09-12T03:27:32;53.47;;;33.30;;
61200;SDS011;47065;52.898;6.992;2022-09-12T03:30:02;54.35;;;33.80;;
61200;SDS011;47065;52.898;6.992;2022-09-12T03:32:39;51.22;;;33.13;;
61200;SDS011;47065;52.898;6.992;2022-09-12T03:35:05;54.33;;;33.47;;
61200;SDS011;47065;52.898;6.992;2022-09-12T03:37:31;49.65;;;33.10;;
61200;SDS011;47065;52.898;6.992;2022-09-12T03:39:57;51.00;;;34.60;;
61200;SDS011;47065;52.898;6.992;2022-09-12T03:42:22;52.13;;;33.88;;
61200;SDS011;47065;52.898;6.992;2022-09-12T03:44:48;48.33;;;32.15;;
61200;SDS011;47065;52.898;6.992;2022-09-12T03:47:13;48.25;;;31.75;;
61200;SDS011;47065;52.898;6.992;2022-09-12T03:49:39;48.70;;;32.17;;
61200;SDS011;47065;52.898;6.992;2022-09-12T03:52:05;56.55;;;32.75;;
61200;SDS011;47065;52.898;6.992;2022-09-12T03:54:30;62.75;;;38.42;;
61200;SDS011;47065;52.898;6.992;2022-09-12T03:56:56;48.72;;;31.77;;
61200;SDS011;47065;52.898;6.992;2022-09-12T03:59:21;56.45;;;34.60;;
61200;SDS011;47065;52.898;6.992;2022-09-12T04:01:47;66.07;;;36.70;;
61200;SDS011;47065;52.898;6.992;2022-09-12T04:04:12;57.33;;;34.10;;
61200;SDS011;47065;52.898;6.992;2022-09-12T04:06:38;54.00;;;34.22;;
61200;SDS011;47065;52.898;6.992;2022-09-12T04:09:04;48.72;;;30.98;;
61200;SDS011;47065;52.898;6.992;2022-09-12T04:11:29;55.97;;;33.70;;
61200;SDS011;47065;52.898;6.992;2022-09-12T04:13:56;73.38;;;38.15;;
61200;SDS011;47065;52.898;6.992;2022-09-12T04:16:21;70.70;;;39.55;;
61200;SDS011;47065;52.898;6.992;2022-09-12T04:18:47;66.78;;;38.13;;
61200;SDS011;47065;52.898;6.992;2022-09-12T04:21:14;59.97;;;37.03;;
61200;SDS011;47065;52.898;6.992;2022-09-12T04:23:41;57.13;;;36.70;;
61200;SDS011;47065;52.898;6.992;2022-09-12T04:26:06;61.70;;;36.20;;
61200;SDS011;47065;52.898;6.992;2022-09-12T04:28:33;63.83;;;37.63;;
61200;SDS011;47065;52.898;6.992;2022-09-12T04:31:00;70.10;;;38.83;;
61200;SDS011;47065;52.898;6.992;2022-09-12T04:33:32;64.75;;;37.05;;
61200;SDS011;47065;52.898;6.992;2022-09-12T04:36:05;67.05;;;38.20;;
61200;SDS011;47065;52.898;6.992;2022-09-12T04:38:33;67.78;;;37.05;;
61200;SDS011;47065;52.898;6.992;2022-09-12T04:40:59;72.85;;;40.70;;
61200;SDS011;47065;52.898;6.992;2022-09-12T04:43:25;76.07;;;41.40;;
61200;SDS011;47065;52.898;6.992;2022-09-12T04:45:51;68.45;;;38.35;;
61200;SDS011;47065;52.898;6.992;2022-09-12T04:48:16;71.03;;;40.13;;
61200;SDS011;47065;52.898;6.992;2022-09-12T04:50:42;81.95;;;42.72;;
61200;SDS011;47065;52.898;6.992;2022-09-12T04:53:08;81.72;;;42.22;;
61200;SDS011;47065;52.898;6.992;2022-09-12T04:55:33;81.32;;;41.50;;
61200;SDS011;47065;52.898;6.992;2022-09-12T04:57:59;72.13;;;41.08;;
61200;SDS011;47065;52.898;6.992;2022-09-12T05:00:25;79.57;;;39.88;;
61200;SDS011;47065;52.898;6.992;2022-09-12T05:02:51;67.88;;;38.17;;
61200;SDS011;47065;52.898;6.992;2022-09-12T05:05:17;76.18;;;41.10;;
61200;SDS011;47065;52.898;6.992;2022-09-12T05:07:42;73.80;;;38.47;;
61200;SDS011;47065;52.898;6.992;2022-09-12T05:10:08;68.72;;;37.28;;
61200;SDS011;47065;52.898;6.992;2022-09-12T05:12:34;68.70;;;38.40;;
61200;SDS011;47065;52.898;6.992;2022-09-12T05:15:01;69.40;;;37.20;;
61200;SDS011;47065;52.898;6.992;2022-09-12T05:17:29;77.95;;;37.70;;
61200;SDS011;47065;52.898;6.992;2022-09-12T05:19:55;59.53;;;33.45;;
61200;SDS011;47065;52.898;6.992;2022-09-12T05:22:21;66.93;;;36.70;;
61200;SDS011;47065;52.898;6.992;2022-09-12T05:24:47;65.93;;;38.08;;
61200;SDS011;47065;52.898;6.992;2022-09-12T05:27:13;62.85;;;35.60;;
61200;SDS011;47065;52.898;6.992;2022-09-12T05:29:38;66.90;;;38.33;;
61200;SDS011;47065;52.898;6.992;2022-09-12T05:32:04;66.53;;;37.30;;
61200;SDS011;47065;52.898;6.992;2022-09-12T05:34:30;72.47;;;39.50;;
61200;SDS011;47065;52.898;6.992;2022-09-12T05:36:56;80.72;;;43.35;;
61200;SDS011;47065;52.898;6.992;2022-09-12T05:39:22;76.75;;;42.72;;
61200;SDS011;47065;52.898;6.992;2022-09-12T05:41:48;80.38;;;43.55;;
61200;SDS011;47065;52.898;6.992;2022-09-12T05:44:14;74.55;;;41.42;;
61200;SDS011;47065;52.898;6.992;2022-09-12T05:46:41;74.40;;;43.72;;
61200;SDS011;47065;52.898;6.992;2022-09-12T05:49:08;88.03;;;45.03;;
61200;SDS011;47065;52.898;6.992;2022-09-12T05:51:37;94.20;;;46.65;;
61200;SDS011;47065;52.898;6.992;2022-09-12T05:54:05;91.10;;;46.72;;
61200;SDS011;47065;52.898;6.992;2022-09-12T05:56:33;87.22;;;46.45;;
61200;SDS011;47065;52.898;6.992;2022-09-12T05:59:03;83.60;;;45.90;;
61200;SDS011;47065;52.898;6.992;2022-09-12T06:01:31;87.82;;;47.08;;
61200;SDS011;47065;52.898;6.992;2022-09-12T06:03:59;90.38;;;46.88;;
61200;SDS011;47065;52.898;6.992;2022-09-12T06:06:26;97.75;;;48.92;;
61200;SDS011;47065;52.898;6.992;2022-09-12T06:08:54;90.85;;;46.95;;
61200;SDS011;47065;52.898;6.992;2022-09-12T06:11:23;84.50;;;47.75;;
61200;SDS011;47065;52.898;6.992;2022-09-12T06:13:51;87.80;;;46.75;;
61200;SDS011;47065;52.898;6.992;2022-09-12T06:16:18;84.30;;;46.33;;
61200;SDS011;47065;52.898;6.992;2022-09-12T06:18:49;86.10;;;45.22;;
61200;SDS011;47065;52.898;6.992;2022-09-12T06:21:19;81.75;;;44.15;;
61200;SDS011;47065;52.898;6.992;2022-09-12T06:23:46;82.03;;;42.50;;
61200;SDS011;47065;52.898;6.992;2022-09-12T06:26:13;80.75;;;45.72;;
61200;SDS011;47065;52.898;6.992;2022-09-12T06:28:41;75.65;;;44.97;;
61200;SDS011;47065;52.898;6.992;2022-09-12T06:31:15;83.30;;;44.28;;
61200;SDS011;47065;52.898;6.992;2022-09-12T06:33:47;73.13;;;41.63;;
61200;SDS011;47065;52.898;6.992;2022-09-12T06:36:15;74.53;;;42.03;;
61200;SDS011;47065;52.898;6.992;2022-09-12T06:38:43;67.40;;;42.05;;
61200;SDS011;47065;52.898;6.992;2022-09-12T06:41:10;69.68;;;41.08;;
61200;SDS011;47065;52.898;6.992;2022-09-12T06:43:36;75.50;;;42.53;;
61200;SDS011;47065;52.898;6.992;2022-09-12T06:46:02;74.82;;;42.60;;
61200;SDS011;47065;52.898;6.992;2022-09-12T06:48:28;70.78;;;40.83;;
61200;SDS011;47065;52.898;6.992;2022-09-12T06:50:55;69.38;;;41.22;;
61200;SDS011;47065;52.898;6.992;2022-09-12T06:53:22;69.10;;;41.08;;
61200;SDS011;47065;52.898;6.992;2022-09-12T06:58:34;65.03;;;40.08;;
61200;SDS011;47065;52.898;6.992;2022-09-12T07:01:01;57.78;;;39.28;;
61200;SDS011;47065;52.898;6.992;2022-09-12T07:03:29;66.15;;;40.13;;
61200;SDS011;47065;52.898;6.992;2022-09-12T07:05:55;56.42;;;37.58;;
61200;SDS011;47065;52.898;6.992;2022-09-12T07:08:20;61.25;;;38.20;;
61200;SDS011;47065;52.898;6.992;2022-09-12T07:10:46;55.55;;;38.55;;
61200;SDS011;47065;52.898;6.992;2022-09-12T07:13:12;54.08;;;36.70;;
61200;SDS011;47065;52.898;6.992;2022-09-12T07:15:38;50.13;;;33.92;;
61200;SDS011;47065;52.898;6.992;2022-09-12T07:18:04;49.97;;;33.50;;
61200;SDS011;47065;52.898;6.992;2022-09-12T07:20:30;47.22;;;33.10;;
61200;SDS011;47065;52.898;6.992;2022-09-12T07:22:58;44.60;;;31.38;;
61200;SDS011;47065;52.898;6.992;2022-09-12T07:25:24;45.17;;;30.48;;
61200;SDS011;47065;52.898;6.992;2022-09-12T07:27:51;40.97;;;29.40;;
61200;SDS011;47065;52.898;6.992;2022-09-12T07:30:17;39.10;;;28.92;;
61200;SDS011;47065;52.898;6.992;2022-09-12T07:32:43;39.65;;;27.67;;
61200;SDS011;47065;52.898;6.992;2022-09-12T07:35:08;35.97;;;25.27;;
61200;SDS011;47065;52.898;6.992;2022-09-12T07:37:34;37.95;;;26.20;;
61200;SDS011;47065;52.898;6.992;2022-09-12T07:40:00;38.13;;;29.05;;
61200;SDS011;47065;52.898;6.992;2022-09-12T07:42:26;39.03;;;27.05;;
61200;SDS011;47065;52.898;6.992;2022-09-12T07:44:52;33.72;;;25.95;;
61200;SDS011;47065;52.898;6.992;2022-09-12T07:47:17;35.53;;;28.50;;
61200;SDS011;47065;52.898;6.992;2022-09-12T07:49:43;39.80;;;27.92;;
61200;SDS011;47065;52.898;6.992;2022-09-12T07:52:09;39.33;;;26.85;;
61200;SDS011;47065;52.898;6.992;2022-09-12T07:54:34;38.92;;;26.67;;
61200;SDS011;47065;52.898;6.992;2022-09-12T07:57:00;37.03;;;25.45;;
61200;SDS011;47065;52.898;6.992;2022-09-12T07:59:26;33.78;;;26.38;;
61200;SDS011;47065;52.898;6.992;2022-09-12T08:01:52;34.75;;;24.52;;
61200;SDS011;47065;52.898;6.992;2022-09-12T08:04:18;37.80;;;26.05;;
61200;SDS011;47065;52.898;6.992;2022-09-12T08:06:43;31.05;;;24.00;;
61200;SDS011;47065;52.898;6.992;2022-09-12T08:09:09;30.40;;;24.90;;
61200;SDS011;47065;52.898;6.992;2022-09-12T08:11:36;37.92;;;24.90;;
61200;SDS011;47065;52.898;6.992;2022-09-12T08:14:02;33.60;;;23.90;;
61200;SDS011;47065;52.898;6.992;2022-09-12T08:16:30;31.70;;;22.58;;
61200;SDS011;47065;52.898;6.992;2022-09-12T08:18:57;25.95;;;20.75;;
61200;SDS011;47065;52.898;6.992;2022-09-12T08:21:25;25.75;;;20.05;;
61200;SDS011;47065;52.898;6.992;2022-09-12T08:23:54;25.23;;;19.15;;
61200;SDS011;47065;52.898;6.992;2022-09-12T08:26:27;27.52;;;19.27;;
61200;SDS011;47065;52.898;6.992;2022-09-12T08:28:54;22.75;;;19.38;;
61200;SDS011;47065;52.898;6.992;2022-09-12T08:31:20;24.33;;;18.33;;
61200;SDS011;47065;52.898;6.992;2022-09-12T08:33:47;24.38;;;18.83;;
61200;SDS011;47065;52.898;6.992;2022-09-12T08:36:15;22.95;;;17.73;;
61200;SDS011;47065;52.898;6.992;2022-09-12T08:38:46;23.52;;;17.52;;
61200;SDS011;47065;52.898;6.992;2022-09-12T08:46:18;23.83;;;17.10;;
61200;SDS011;47065;52.898;6.992;2022-09-12T08:48:49;20.73;;;17.17;;
61200;SDS011;47065;52.898;6.992;2022-09-12T08:51:16;21.02;;;17.35;;
61200;SDS011;47065;52.898;6.992;2022-09-12T08:53:44;21.85;;;17.35;;
61200;SDS011;47065;52.898;6.992;2022-09-12T08:56:12;22.42;;;17.92;;
61200;SDS011;47065;52.898;6.992;2022-09-12T08:58:39;22.17;;;17.23;;
61200;SDS011;47065;52.898;6.992;2022-09-12T09:09:51;19.15;;;16.48;;
61200;SDS011;47065;52.898;6.992;2022-09-12T09:20:18;22.60;;;17.25;;
61200;SDS011;47065;52.898;6.992;2022-09-12T09:22:50;22.45;;;16.08;;
61200;SDS011;47065;52.898;6.992;2022-09-12T09:25:19;23.40;;;17.35;;
61200;SDS011;47065;52.898;6.992;2022-09-12T09:27:58;22.33;;;18.48;;
61200;SDS011;47065;52.898;6.992;2022-09-12T09:30:30;23.15;;;17.52;;
61200;SDS011;47065;52.898;6.992;2022-09-12T09:32:59;22.70;;;17.67;;
61200;SDS011;47065;52.898;6.992;2022-09-12T09:38:22;23.05;;;18.42;;
61200;SDS011;47065;52.898;6.992;2022-09-12T09:43:39;24.92;;;18.80;;
61200;SDS011;47065;52.898;6.992;2022-09-12T09:46:05;28.83;;;20.63;;
61200;SDS011;47065;52.898;6.992;2022-09-12T09:48:31;23.92;;;19.33;;
61200;SDS011;47065;52.898;6.992;2022-09-12T09:51:00;28.25;;;19.90;;
61200;SDS011;47065;52.898;6.992;2022-09-12T09:56:06;27.75;;;21.00;;
61200;SDS011;47065;52.898;6.992;2022-09-12T09:58:36;28.75;;;20.95;;
61200;SDS011;47065;52.898;6.992;2022-09-12T10:01:05;27.50;;;21.63;;
61200;SDS011;47065;52.898;6.992;2022-09-12T10:03:39;28.35;;;20.67;;
61200;SDS011;47065;52.898;6.992;2022-09-12T10:08:46;32.15;;;24.65;;
61200;SDS011;47065;52.898;6.992;2022-09-12T10:11:20;32.38;;;22.25;;
61200;SDS011;47065;52.898;6.992;2022-09-12T10:16:20;35.47;;;23.52;;
61200;SDS011;47065;52.898;6.992;2022-09-12T10:18:47;32.33;;;23.08;;
61200;SDS011;47065;52.898;6.992;2022-09-12T10:21:16;37.33;;;24.52;;
61200;SDS011;47065;52.898;6.992;2022-09-12T10:23:43;31.88;;;21.60;;
61200;SDS011;47065;52.898;6.992;2022-09-12T10:26:11;34.55;;;25.42;;
61200;SDS011;47065;52.898;6.992;2022-09-12T10:28:40;38.33;;;23.85;;
61200;SDS011;47065;52.898;6.992;2022-09-12T10:31:15;36.10;;;24.65;;
61200;SDS011;47065;52.898;6.992;2022-09-12T10:33:53;38.72;;;24.17;;
61200;SDS011;47065;52.898;6.992;2022-09-12T10:36:21;32.17;;;23.92;;
61200;SDS011;47065;52.898;6.992;2022-09-12T10:38:52;31.00;;;22.25;;
61200;SDS011;47065;52.898;6.992;2022-09-12T10:41:20;36.13;;;21.50;;
61200;SDS011;47065;52.898;6.992;2022-09-12T10:43:47;37.08;;;22.40;;
61200;SDS011;47065;52.898;6.992;2022-09-12T10:48:38;31.52;;;21.42;;
61200;SDS011;47065;52.898;6.992;2022-09-12T10:51:04;28.75;;;21.13;;
61200;SDS011;47065;52.898;6.992;2022-09-12T10:53:38;27.90;;;20.40;;
61200;SDS011;47065;52.898;6.992;2022-09-12T10:56:08;27.05;;;20.70;;
61200;SDS011;47065;52.898;6.992;2022-09-12T11:04:04;29.25;;;19.38;;
61200;SDS011;47065;52.898;6.992;2022-09-12T11:06:50;33.85;;;20.33;;
61200;SDS011;47065;52.898;6.992;2022-09-12T11:09:46;28.60;;;20.38;;
61200;SDS011;47065;52.898;6.992;2022-09-12T11:12:19;26.83;;;20.17;;
61200;SDS011;47065;52.898;6.992;2022-09-12T11:14:59;27.77;;;19.92;;
61200;SDS011;47065;52.898;6.992;2022-09-12T11:29:11;25.98;;;19.30;;
61200;SDS011;47065;52.898;6.992;2022-09-12T11:32:10;24.42;;;17.85;;
61200;SDS011;47065;52.898;6.992;2022-09-12T11:34:55;23.33;;;17.50;;
61200;SDS011;47065;52.898;6.992;2022-09-12T11:42:55;21.58;;;16.73;;
61200;SDS011;47065;52.898;6.992;2022-09-12T11:45:31;27.00;;;18.33;;
61200;SDS011;47065;52.898;6.992;2022-09-12T11:48:05;25.70;;;18.08;;
61200;SDS011;47065;52.898;6.992;2022-09-12T11:50:35;23.90;;;17.63;;
61200;SDS011;47065;52.898;6.992;2022-09-12T11:55:54;21.08;;;14.65;;
61200;SDS011;47065;52.898;6.992;2022-09-12T11:58:26;14.60;;;12.95;;
61200;SDS011;47065;52.898;6.992;2022-09-12T12:00:58;20.10;;;13.70;;
61200;SDS011;47065;52.898;6.992;2022-09-12T12:03:40;20.27;;;14.07;;
61200;SDS011;47065;52.898;6.992;2022-09-12T12:06:12;20.10;;;14.77;;
61200;SDS011;47065;52.898;6.992;2022-09-12T12:08:45;19.15;;;14.60;;
61200;SDS011;47065;52.898;6.992;2022-09-12T12:11:30;19.13;;;15.63;;
61200;SDS011;47065;52.898;6.992;2022-09-12T12:14:19;16.75;;;13.98;;
61200;SDS011;47065;52.898;6.992;2022-09-12T12:16:49;20.63;;;15.53;;
61200;SDS011;47065;52.898;6.992;2022-09-12T12:21:42;18.60;;;14.40;;
61200;SDS011;47065;52.898;6.992;2022-09-12T12:24:19;18.30;;;14.25;;
61200;SDS011;47065;52.898;6.992;2022-09-12T12:34:40;19.15;;;13.48;;
61200;SDS011;47065;52.898;6.992;2022-09-12T12:45:45;15.90;;;12.57;;
61200;SDS011;47065;52.898;6.992;2022-09-12T12:47:48;13.95;;;9.90;;
61200;SDS011;47065;52.898;6.992;2022-09-12T12:50:25;15.50;;;10.55;;
61200;SDS011;47065;52.898;6.992;2022-09-12T12:53:39;8.60;;;7.63;;
61200;SDS011;47065;52.898;6.992;2022-09-12T12:55:48;8.38;;;6.93;;
61200;SDS011;47065;52.898;6.992;2022-09-12T12:58:33;7.57;;;6.78;;
61200;SDS011;47065;52.898;6.992;2022-09-12T13:01:08;8.27;;;6.32;;
61200;SDS011;47065;52.898;6.992;2022-09-12T13:03:39;10.57;;;6.85;;
61200;SDS011;47065;52.898;6.992;2022-09-12T13:06:08;11.25;;;7.07;;
61200;SDS011;47065;52.898;6.992;2022-09-12T13:08:57;10.57;;;7.30;;
61200;SDS011;47065;52.898;6.992;2022-09-12T13:11:45;12.00;;;7.40;;
61200;SDS011;47065;52.898;6.992;2022-09-12T13:19:50;11.80;;;8.00;;
61200;SDS011;47065;52.898;6.992;2022-09-12T13:22:19;9.88;;;7.82;;
61200;SDS011;47065;52.898;6.992;2022-09-12T13:24:48;15.30;;;9.38;;
61200;SDS011;47065;52.898;6.992;2022-09-12T13:27:22;10.68;;;8.02;;
61200;SDS011;47065;52.898;6.992;2022-09-12T13:29:49;11.52;;;6.25;;
61200;SDS011;47065;52.898;6.992;2022-09-12T13:32:38;9.80;;;7.55;;
61200;SDS011;47065;52.898;6.992;2022-09-12T13:40:32;11.27;;;6.78;;
61200;SDS011;47065;52.898;6.992;2022-09-12T13:43:24;7.93;;;7.22;;
61200;SDS011;47065;52.898;6.992;2022-09-12T13:46:00;8.52;;;7.30;;
61200;SDS011;47065;52.898;6.992;2022-09-12T13:48:26;15.40;;;7.40;;
61200;SDS011;47065;52.898;6.992;2022-09-12T13:50:52;8.40;;;7.05;;
61200;SDS011;47065;52.898;6.992;2022-09-12T13:53:22;6.65;;;6.03;;
61200;SDS011;47065;52.898;6.992;2022-09-12T13:55:52;7.38;;;4.95;;
61200;SDS011;47065;52.898;6.992;2022-09-12T13:58:27;6.40;;;5.65;;
61200;SDS011;47065;52.898;6.992;2022-09-12T14:06:24;7.28;;;5.95;;
61200;SDS011;47065;52.898;6.992;2022-09-12T14:08:51;6.47;;;5.28;;
61200;SDS011;47065;52.898;6.992;2022-09-12T14:11:27;9.20;;;5.53;;
61200;SDS011;47065;52.898;6.992;2022-09-12T14:13:55;7.03;;;5.68;;
61200;SDS011;47065;52.898;6.992;2022-09-12T14:16:21;10.07;;;6.90;;
61200;SDS011;47065;52.898;6.992;2022-09-12T14:18:52;5.93;;;5.35;;
61200;SDS011;47065;52.898;6.992;2022-09-12T14:23:58;9.05;;;6.00;;
61200;SDS011;47065;52.898;6.992;2022-09-12T14:26:26;7.63;;;6.03;;
61200;SDS011;47065;52.898;6.992;2022-09-12T14:28:57;9.77;;;6.05;;
61200;SDS011;47065;52.898;6.992;2022-09-12T14:31:28;7.93;;;6.05;;
61200;SDS011;47065;52.898;6.992;2022-09-12T14:34:07;8.60;;;6.38;;
61200;SDS011;47065;52.898;6.992;2022-09-12T14:36:47;7.63;;;6.50;;
61200;SDS011;47065;52.898;6.992;2022-09-12T14:41:43;8.85;;;6.88;;
61200;SDS011;47065;52.898;6.992;2022-09-12T14:44:21;10.27;;;5.88;;
61200;SDS011;47065;52.898;6.992;2022-09-12T14:46:48;6.30;;;5.70;;
61200;SDS011;47065;52.898;6.992;2022-09-12T14:49:19;6.22;;;5.63;;
61200;SDS011;47065;52.898;6.992;2022-09-12T14:52:02;6.57;;;4.95;;
61200;SDS011;47065;52.898;6.992;2022-09-12T14:56:57;7.10;;;4.63;;
61200;SDS011;47065;52.898;6.992;2022-09-12T15:02:41;4.93;;;4.45;;
61200;SDS011;47065;52.898;6.992;2022-09-12T15:07:41;7.20;;;4.80;;
61200;SDS011;47065;52.898;6.992;2022-09-12T15:13:09;3.95;;;3.63;;
61200;SDS011;47065;52.898;6.992;2022-09-12T15:15:44;7.65;;;4.75;;
61200;SDS011;47065;52.898;6.992;2022-09-12T15:18:18;4.80;;;4.35;;
61200;SDS011;47065;52.898;6.992;2022-09-12T15:20:45;4.40;;;4.00;;
61200;SDS011;47065;52.898;6.992;2022-09-12T15:25:44;5.53;;;3.58;;
61200;SDS011;47065;52.898;6.992;2022-09-12T15:28:17;5.63;;;3.53;;
61200;SDS011;47065;52.898;6.992;2022-09-12T15:30:46;7.97;;;4.00;;
61200;SDS011;47065;52.898;6.992;2022-09-12T15:33:16;8.52;;;3.72;;
61200;SDS011;47065;52.898;6.992;2022-09-12T15:35:44;6.30;;;3.50;;
61200;SDS011;47065;52.898;6.992;2022-09-12T15:38:10;4.07;;;3.33;;
61200;SDS011;47065;52.898;6.992;2022-09-12T15:40:36;3.88;;;3.55;;
61200;SDS011;47065;52.898;6.992;2022-09-12T15:43:03;5.88;;;3.00;;
61200;SDS011;47065;52.898;6.992;2022-09-12T15:45:29;3.55;;;3.25;;
61200;SDS011;47065;52.898;6.992;2022-09-12T15:47:57;5.13;;;2.92;;
61200;SDS011;47065;52.898;6.992;2022-09-12T15:50:23;3.53;;;3.05;;
61200;SDS011;47065;52.898;6.992;2022-09-12T15:52:49;4.63;;;2.97;;
61200;SDS011;47065;52.898;6.992;2022-09-12T15:55:19;4.63;;;3.03;;
61200;SDS011;47065;52.898;6.992;2022-09-12T15:57:46;3.17;;;2.50;;
61200;SDS011;47065;52.898;6.992;2022-09-12T16:00:12;2.92;;;2.53;;
61200;SDS011;47065;52.898;6.992;2022-09-12T16:02:39;3.00;;;2.67;;
61200;SDS011;47065;52.898;6.992;2022-09-12T16:05:05;3.00;;;2.80;;
61200;SDS011;47065;52.898;6.992;2022-09-12T16:07:38;4.43;;;2.90;;
61200;SDS011;47065;52.898;6.992;2022-09-12T16:10:03;3.28;;;2.97;;
61200;SDS011;47065;52.898;6.992;2022-09-12T16:12:30;5.78;;;2.70;;
61200;SDS011;47065;52.898;6.992;2022-09-12T16:14:55;4.25;;;3.00;;
61200;SDS011;47065;52.898;6.992;2022-09-12T16:17:21;4.47;;;3.38;;
61200;SDS011;47065;52.898;6.992;2022-09-12T16:19:47;6.45;;;2.97;;
61200;SDS011;47065;52.898;6.992;2022-09-12T16:22:13;3.40;;;3.10;;
61200;SDS011;47065;52.898;6.992;2022-09-12T16:24:38;3.60;;;2.63;;
61200;SDS011;47065;52.898;6.992;2022-09-12T16:27:05;5.97;;;3.00;;
61200;SDS011;47065;52.898;6.992;2022-09-12T16:29:30;3.53;;;2.30;;
61200;SDS011;47065;52.898;6.992;2022-09-12T16:31:56;3.88;;;2.97;;
61200;SDS011;47065;52.898;6.992;2022-09-12T16:34:22;3.08;;;2.75;;
61200;SDS011;47065;52.898;6.992;2022-09-12T16:36:47;4.75;;;2.88;;
61200;SDS011;47065;52.898;6.992;2022-09-12T16:39:13;3.95;;;2.67;;
61200;SDS011;47065;52.898;6.992;2022-09-12T16:41:39;4.50;;;3.00;;
61200;SDS011;47065;52.898;6.992;2022-09-12T16:44:06;3.08;;;2.75;;
61200;SDS011;47065;52.898;6.992;2022-09-12T16:46:32;2.85;;;2.65;;
61200;SDS011;47065;52.898;6.992;2022-09-12T16:48:58;5.53;;;3.13;;
61200;SDS011;47065;52.898;6.992;2022-09-12T16:51:25;3.22;;;2.95;;
61200;SDS011;47065;52.898;6.992;2022-09-12T16:53:54;3.15;;;2.95;;
61200;SDS011;47065;52.898;6.992;2022-09-12T16:56:20;3.13;;;2.78;;
61200;SDS011;47065;52.898;6.992;2022-09-12T16:58:47;2.97;;;2.78;;
61200;SDS011;47065;52.898;6.992;2022-09-12T17:01:17;5.40;;;3.17;;
61200;SDS011;47065;52.898;6.992;2022-09-12T17:03:45;4.50;;;3.35;;
61200;SDS011;47065;52.898;6.992;2022-09-12T17:06:12;5.80;;;3.20;;
61200;SDS011;47065;52.898;6.992;2022-09-12T17:08:41;5.38;;;3.15;;
61200;SDS011;47065;52.898;6.992;2022-09-12T17:11:13;5.85;;;3.67;;
61200;SDS011;47065;52.898;6.992;2022-09-12T17:13:40;3.47;;;3.17;;
61200;SDS011;47065;52.898;6.992;2022-09-12T17:16:10;3.30;;;2.90;;
61200;SDS011;47065;52.898;6.992;2022-09-12T17:18:39;5.50;;;2.88;;
61200;SDS011;47065;52.898;6.992;2022-09-12T17:21:05;5.50;;;3.17;;